createdAt,value
2023-04-16T00:00:29.661Z,22.0677
2023-04-16T00:01:33.561Z,22.0660
2023-04-16T00:02:37.624Z,22.0752
2023-04-16T00:03:41.815Z,22.0817
2023-04-16T00:04:45.863Z,22.0928
2023-04-16T00:05:49.746Z,22.1061
2023-04-16T00:06:53.655Z,22.1125
2023-04-16T00:07:57.530Z,22.1084
2023-04-16T00:09:01.414Z,22.1060
2023-04-16T00:10:05.333Z,22.1089
2023-04-16T00:11:09.193Z,22.1142
2023-04-16T00:12:13.083Z,22.1046
2023-04-16T00:13:16.985Z,22.0945
2023-04-16T00:14:20.877Z,22.0982
2023-04-16T00:15:24.784Z,22.0922
2023-04-16T00:16:28.995Z,22.0780
2023-04-16T00:17:32.963Z,22.0750
2023-04-16T00:18:36.841Z,22.0591
2023-04-16T00:19:40.742Z,22.0535
2023-04-16T00:20:44.615Z,22.0570
2023-04-16T00:21:48.754Z,22.0495
2023-04-16T00:22:52.652Z,22.0563
2023-04-16T00:23:56.745Z,22.0567
2023-04-16T00:25:00.646Z,22.0632
2023-04-16T00:26:04.555Z,22.0642
2023-04-16T00:27:08.440Z,22.0572
2023-04-16T00:28:12.350Z,22.0479
2023-04-16T00:29:16.236Z,22.0418
2023-04-16T00:30:20.132Z,22.0367
2023-04-16T00:31:24.350Z,22.0411
2023-04-16T00:32:28.379Z,22.0458
2023-04-16T00:33:32.287Z,22.0580
2023-04-16T00:34:32.496Z,22.0679
2023-04-16T00:35:36.392Z,22.0739
2023-04-16T00:36:40.329Z,22.0724
2023-04-16T00:37:44.206Z,22.0809
2023-04-16T00:38:48.320Z,22.0825
2023-04-16T00:39:52.231Z,22.0841
2023-04-16T00:40:56.100Z,22.0861
2023-04-16T00:41:59.995Z,22.0793
2023-04-16T00:43:03.875Z,22.0685
2023-04-16T00:44:07.791Z,22.0605
2023-04-16T00:45:11.676Z,22.0653
2023-04-16T00:46:15.610Z,22.0748
2023-04-16T00:47:19.484Z,22.0724
2023-04-16T00:48:23.378Z,22.0665
2023-04-16T00:49:27.278Z,22.0669
2023-04-16T00:50:31.160Z,22.0698
2023-04-16T00:51:35.060Z,22.0673
2023-04-16T00:52:38.936Z,22.0655
2023-04-16T00:53:42.838Z,22.0655
2023-04-16T00:54:46.720Z,22.0678
2023-04-16T00:55:50.634Z,22.0704
2023-04-16T00:56:54.503Z,22.0753
2023-04-16T00:57:58.410Z,22.0760
2023-04-16T00:59:02.328Z,22.0711
2023-04-16T01:00:06.227Z,22.0709
2023-04-16T01:01:10.138Z,22.0769
2023-04-16T01:02:14.108Z,22.0826
2023-04-16T01:03:18.038Z,22.0816
2023-04-16T01:04:22.020Z,22.0753
2023-04-16T01:05:25.898Z,22.0709
2023-04-16T01:06:29.804Z,22.0696
2023-04-16T01:07:33.690Z,22.0660
2023-04-16T01:08:37.597Z,22.0617
2023-04-16T01:09:41.520Z,22.0576
2023-04-16T01:10:45.410Z,22.0604
2023-04-16T01:11:49.310Z,22.0573
2023-04-16T01:12:53.202Z,22.0437
2023-04-16T01:13:57.105Z,22.0449
2023-04-16T01:15:00.995Z,22.0404
2023-04-16T01:16:04.960Z,22.0383
2023-04-16T01:17:09.039Z,22.0358
2023-04-16T01:18:12.967Z,22.0328
2023-04-16T01:19:16.814Z,22.0349
2023-04-16T01:20:20.713Z,22.0308
2023-04-16T01:21:24.588Z,22.0289
2023-04-16T01:22:28.507Z,22.0213
2023-04-16T01:23:32.371Z,22.0118
2023-04-16T01:24:36.287Z,21.9996
2023-04-16T01:25:40.157Z,22.0139
2023-04-16T01:26:44.058Z,22.0277
2023-04-16T01:27:47.936Z,22.0345
2023-04-16T01:28:52.157Z,22.0383
2023-04-16T01:29:56.052Z,22.0437
2023-04-16T01:30:59.946Z,22.0401
2023-04-16T01:32:04.139Z,22.0318
2023-04-16T01:33:08.031Z,22.0325
2023-04-16T01:34:11.937Z,22.0416
2023-04-16T01:35:15.821Z,22.0389
2023-04-16T01:36:19.731Z,22.0103
2023-04-16T01:37:23.617Z,21.9887
2023-04-16T01:38:27.515Z,21.9933
2023-04-16T01:39:31.602Z,21.9807
2023-04-16T01:40:35.511Z,21.9636
2023-04-16T01:41:39.406Z,21.9582
2023-04-16T01:42:43.309Z,21.9514
2023-04-16T01:43:47.423Z,21.9577
2023-04-16T01:44:51.308Z,21.9664
2023-04-16T01:45:55.207Z,21.9649
2023-04-16T01:46:59.140Z,21.9732
2023-04-16T01:48:03.084Z,21.9787
2023-04-16T01:49:07.047Z,21.9828
2023-04-16T01:50:11.012Z,21.9749
2023-04-16T01:51:14.913Z,21.9756
2023-04-16T01:52:18.795Z,21.9717
2023-04-16T01:53:22.692Z,21.9593
2023-04-16T01:54:26.805Z,21.9604
2023-04-16T01:55:30.710Z,21.9671
2023-04-16T01:56:34.588Z,21.9631
2023-04-16T01:57:38.509Z,21.9645
2023-04-16T01:58:42.379Z,21.9605
2023-04-16T01:59:46.277Z,21.9678
2023-04-16T02:00:50.167Z,21.9651
2023-04-16T02:01:54.099Z,21.9569
2023-04-16T02:02:58.069Z,21.9530
2023-04-16T02:04:02.339Z,21.9429
2023-04-16T02:05:07.097Z,21.9489
2023-04-16T02:06:07.810Z,21.9527
2023-04-16T02:07:11.730Z,21.9572
2023-04-16T02:08:15.605Z,21.9537
2023-04-16T02:09:19.718Z,21.9529
2023-04-16T02:10:31.156Z,21.9563
2023-04-16T02:11:24.457Z,21.9624
2023-04-16T02:12:28.363Z,21.9743
2023-04-16T02:13:32.281Z,21.9833
2023-04-16T02:14:36.475Z,21.9815
2023-04-16T02:15:40.347Z,21.9888
2023-04-16T02:16:40.877Z,21.9988
2023-04-16T02:17:44.854Z,21.9946
2023-04-16T02:18:48.718Z,21.9835
2023-04-16T02:19:52.646Z,21.9830
2023-04-16T02:20:56.524Z,21.9761
2023-04-16T02:22:00.428Z,21.9718
2023-04-16T02:23:04.289Z,21.9739
2023-04-16T02:24:08.203Z,21.9620
2023-04-16T02:25:12.076Z,21.9603
2023-04-16T02:26:15.980Z,21.9646
2023-04-16T02:27:19.884Z,21.9754
2023-04-16T02:28:23.758Z,21.9736
2023-04-16T02:29:27.817Z,21.9728
2023-04-16T02:30:31.719Z,21.9718
2023-04-16T02:31:35.667Z,21.9789
2023-04-16T02:32:39.574Z,21.9926
2023-04-16T02:33:43.478Z,21.9843
2023-04-16T02:34:47.381Z,21.9792
2023-04-16T02:35:51.271Z,21.9685
2023-04-16T02:36:55.171Z,21.9718
2023-04-16T02:37:59.080Z,21.9684
2023-04-16T02:39:02.949Z,21.9543
2023-04-16T02:40:06.832Z,21.9521
2023-04-16T02:41:10.736Z,21.9665
2023-04-16T02:42:14.626Z,21.9788
2023-04-16T02:43:18.524Z,21.9883
2023-04-16T02:44:22.652Z,21.9899
2023-04-16T02:45:26.538Z,21.9941
2023-04-16T02:46:30.912Z,21.9869
2023-04-16T02:47:34.823Z,21.9910
2023-04-16T02:48:38.731Z,21.9920
2023-04-16T02:49:42.622Z,21.9914
2023-04-16T02:50:46.509Z,21.9864
2023-04-16T02:51:50.615Z,21.9873
2023-04-16T02:52:54.509Z,21.9695
2023-04-16T02:53:58.394Z,21.9518
2023-04-16T02:55:02.307Z,21.9605
2023-04-16T02:56:06.210Z,21.9667
2023-04-16T02:57:10.340Z,21.9693
2023-04-16T02:58:14.235Z,21.9699
2023-04-16T02:59:18.421Z,21.9755
2023-04-16T03:00:22.334Z,21.9737
2023-04-16T03:01:26.277Z,21.9686
2023-04-16T03:02:30.263Z,21.9717
2023-04-16T03:03:34.143Z,21.9805
2023-04-16T03:04:38.458Z,21.9855
2023-04-16T03:05:42.493Z,21.9904
2023-04-16T03:06:46.381Z,21.9885
2023-04-16T03:07:50.268Z,21.9790
2023-04-16T03:08:54.151Z,21.9728
2023-04-16T03:09:58.054Z,21.9756
2023-04-16T03:11:01.934Z,21.9810
2023-04-16T03:12:06.035Z,21.9817
2023-04-16T03:13:09.930Z,21.9733
2023-04-16T03:14:14.030Z,21.9598
2023-04-16T03:15:17.969Z,21.9536
2023-04-16T03:16:22.104Z,21.9365
2023-04-16T03:17:26.028Z,21.9223
2023-04-16T03:18:29.899Z,21.9063
2023-04-16T03:19:34.004Z,21.8927
2023-04-16T03:20:37.923Z,21.8826
2023-04-16T03:21:41.837Z,21.8806
2023-04-16T03:22:45.749Z,21.8801
2023-04-16T03:23:49.647Z,21.8825
2023-04-16T03:24:53.558Z,21.8823
2023-04-16T03:25:57.486Z,21.8848
2023-04-16T03:27:01.609Z,21.8800
2023-04-16T03:28:05.513Z,21.8828
2023-04-16T03:29:05.860Z,21.8878
2023-04-16T03:30:09.758Z,21.8947
2023-04-16T03:31:13.931Z,21.9065
2023-04-16T03:32:17.858Z,21.9053
2023-04-16T03:33:21.736Z,21.9134
2023-04-16T03:34:25.626Z,21.9203
2023-04-16T03:35:29.532Z,21.9146
2023-04-16T03:36:33.674Z,21.9068
2023-04-16T03:37:37.573Z,21.9111
2023-04-16T03:38:41.484Z,21.9210
2023-04-16T03:39:45.623Z,21.9281
2023-04-16T03:40:49.486Z,21.9323
2023-04-16T03:41:53.414Z,21.9367
2023-04-16T03:42:57.300Z,21.9387
2023-04-16T03:44:01.405Z,21.9428
2023-04-16T03:45:05.316Z,21.9610
2023-04-16T03:46:09.243Z,21.9672
2023-04-16T03:47:13.367Z,21.9767
2023-04-16T03:48:17.267Z,21.9825
2023-04-16T03:49:21.358Z,21.9910
2023-04-16T03:50:25.296Z,21.9911
2023-04-16T03:51:29.149Z,21.9912
2023-04-16T03:52:33.051Z,21.9972
2023-04-16T03:53:36.921Z,21.9929
2023-04-16T03:54:40.824Z,21.9946
2023-04-16T03:55:44.692Z,21.9955
2023-04-16T03:56:48.892Z,22.0026
2023-04-16T03:57:52.811Z,22.0061
2023-04-16T03:58:56.699Z,22.0095
2023-04-16T04:00:00.569Z,22.0132
2023-04-16T04:01:04.480Z,22.0111
2023-04-16T04:02:08.461Z,22.0132
2023-04-16T04:03:12.654Z,22.0110
2023-04-16T04:04:16.911Z,22.0166
2023-04-16T04:05:20.821Z,22.0216
2023-04-16T04:06:24.744Z,22.0251
2023-04-16T04:07:28.632Z,22.0281
2023-04-16T04:08:32.532Z,22.0304
2023-04-16T04:09:36.637Z,22.0352
2023-04-16T04:10:40.530Z,22.0429
2023-04-16T04:11:44.693Z,22.0561
2023-04-16T04:12:48.568Z,22.0590
2023-04-16T04:13:52.465Z,22.0499
2023-04-16T04:14:56.349Z,22.0406
2023-04-16T04:16:00.260Z,22.0184
2023-04-16T04:17:04.143Z,21.9877
2023-04-16T04:18:08.044Z,21.9594
2023-04-16T04:19:12.338Z,21.9372
2023-04-16T04:20:16.243Z,21.9364
2023-04-16T04:21:20.153Z,21.9421
2023-04-16T04:22:24.067Z,21.9540
2023-04-16T04:23:27.948Z,21.9415
2023-04-16T04:24:28.291Z,21.9204
2023-04-16T04:25:32.172Z,21.8994
2023-04-16T04:26:36.132Z,21.8948
2023-04-16T04:27:39.971Z,21.8738
2023-04-16T04:28:43.847Z,21.8519
2023-04-16T04:29:47.958Z,21.8221
2023-04-16T04:30:51.845Z,21.8103
2023-04-16T04:31:55.993Z,21.8174
2023-04-16T04:32:59.945Z,21.8052
2023-04-16T04:34:04.128Z,21.8003
2023-04-16T04:35:08.013Z,21.8082
2023-04-16T04:36:11.891Z,21.8069
2023-04-16T04:37:15.791Z,21.7967
2023-04-16T04:38:19.675Z,21.7955
2023-04-16T04:39:23.555Z,21.8148
2023-04-16T04:40:27.478Z,21.8276
2023-04-16T04:41:31.585Z,21.8235
2023-04-16T04:42:35.479Z,21.8316
2023-04-16T04:43:39.391Z,21.8105
2023-04-16T04:44:43.301Z,21.7941
2023-04-16T04:45:47.300Z,21.7938
2023-04-16T04:46:51.459Z,21.7980
2023-04-16T04:47:55.391Z,21.7991
2023-04-16T04:48:59.502Z,21.8038
2023-04-16T04:50:03.449Z,21.8129
2023-04-16T04:51:07.333Z,21.8169
2023-04-16T04:52:11.243Z,21.8154
2023-04-16T04:53:15.200Z,21.8011
2023-04-16T04:54:19.060Z,21.7870
2023-04-16T04:55:22.968Z,21.7875
2023-04-16T04:56:26.907Z,21.7867
2023-04-16T04:57:30.809Z,21.7774
2023-04-16T04:58:34.922Z,21.7675
2023-04-16T04:59:38.812Z,21.7732
2023-04-16T05:00:42.691Z,21.7898
2023-04-16T05:01:46.881Z,21.7927
2023-04-16T05:02:50.906Z,21.7917
2023-04-16T05:03:55.139Z,21.7857
2023-04-16T05:04:59.044Z,21.7849
2023-04-16T05:06:02.930Z,21.7894
2023-04-16T05:07:06.827Z,21.7879
2023-04-16T05:08:10.710Z,21.7796
2023-04-16T05:09:14.600Z,21.7750
2023-04-16T05:10:18.482Z,21.7660
2023-04-16T05:11:22.589Z,21.7563
2023-04-16T05:12:26.480Z,21.7401
2023-04-16T05:13:30.367Z,21.7373
2023-04-16T05:14:34.257Z,21.7533
2023-04-16T05:15:38.131Z,21.7733
2023-04-16T05:16:42.019Z,21.7900
2023-04-16T05:17:45.909Z,21.8001
2023-04-16T05:18:49.838Z,21.8148
2023-04-16T05:19:53.756Z,21.8320
2023-04-16T05:20:57.619Z,21.8494
2023-04-16T05:22:01.493Z,21.8598
2023-04-16T05:23:05.405Z,21.8641
2023-04-16T05:24:09.706Z,21.8789
2023-04-16T05:25:13.591Z,21.8997
2023-04-16T05:26:17.688Z,21.9132
2023-04-16T05:27:21.561Z,21.9256
2023-04-16T05:28:25.458Z,21.9320
2023-04-16T05:29:29.341Z,21.9397
2023-04-16T05:30:33.266Z,21.9506
2023-04-16T05:31:37.334Z,21.9624
2023-04-16T05:32:41.267Z,21.9650
2023-04-16T05:33:45.421Z,21.9721
2023-04-16T05:34:49.291Z,21.9842
2023-04-16T05:35:53.204Z,21.9964
2023-04-16T05:36:57.105Z,22.0106
2023-04-16T05:38:01.007Z,22.0228
2023-04-16T05:39:05.148Z,22.0344
2023-04-16T05:40:09.031Z,22.0391
2023-04-16T05:41:12.929Z,22.0450
2023-04-16T05:42:16.848Z,22.0455
2023-04-16T05:43:20.736Z,22.0563
2023-04-16T05:44:24.661Z,22.0604
2023-04-16T05:45:28.545Z,22.0615
2023-04-16T05:46:32.771Z,22.0713
2023-04-16T05:47:36.738Z,22.0780
2023-04-16T05:48:40.813Z,22.0897
2023-04-16T05:49:44.858Z,22.0952
2023-04-16T05:50:48.729Z,22.0967
2023-04-16T05:51:52.635Z,22.1050
2023-04-16T05:52:56.537Z,22.1139
2023-04-16T05:54:00.679Z,22.1189
2023-04-16T05:55:04.602Z,22.1248
2023-04-16T05:56:08.725Z,22.1252
2023-04-16T05:57:12.624Z,22.1338
2023-04-16T05:58:16.496Z,22.1394
2023-04-16T05:59:20.385Z,22.1468
2023-04-16T06:00:24.280Z,22.1566
2023-04-16T06:01:28.425Z,22.1663
2023-04-16T06:02:32.427Z,22.1712
2023-04-16T06:03:36.720Z,22.1727
2023-04-16T06:04:40.634Z,22.1712
2023-04-16T06:05:44.571Z,22.1751
2023-04-16T06:06:48.423Z,22.1774
2023-04-16T06:07:52.323Z,22.1800
2023-04-16T06:08:56.207Z,22.1904
2023-04-16T06:10:00.110Z,22.1968
2023-04-16T06:11:04.232Z,22.2031
2023-04-16T06:12:08.158Z,22.2034
2023-04-16T06:13:12.054Z,22.2046
2023-04-16T06:14:16.165Z,22.2067
2023-04-16T06:15:20.069Z,22.2127
2023-04-16T06:16:24.015Z,22.2135
2023-04-16T06:17:27.915Z,22.2163
2023-04-16T06:18:32.030Z,22.2212
2023-04-16T06:19:35.916Z,22.2225
2023-04-16T06:20:39.824Z,22.2263
2023-04-16T06:21:43.730Z,22.2279
2023-04-16T06:22:47.603Z,22.2277
2023-04-16T06:23:51.853Z,22.2372
2023-04-16T06:24:55.746Z,22.2454
2023-04-16T06:25:59.624Z,22.2496
2023-04-16T06:27:03.664Z,22.2560
2023-04-16T06:28:07.563Z,22.2570
2023-04-16T06:29:11.765Z,22.2574
2023-04-16T06:30:15.724Z,22.2621
2023-04-16T06:31:19.879Z,22.2666
2023-04-16T06:32:23.816Z,22.2657
2023-04-16T06:33:27.725Z,22.2673
2023-04-16T06:34:31.623Z,22.2672
2023-04-16T06:35:35.509Z,22.2726
2023-04-16T06:36:39.408Z,22.2742
2023-04-16T06:37:43.306Z,22.2726
2023-04-16T06:38:47.178Z,22.2756
2023-04-16T06:39:51.053Z,22.2824
2023-04-16T06:40:55.158Z,22.2843
2023-04-16T06:41:59.055Z,22.2894
2023-04-16T06:43:02.935Z,22.2944
2023-04-16T06:44:06.830Z,22.2980
2023-04-16T06:45:10.699Z,22.3018
2023-04-16T06:46:14.828Z,22.3025
2023-04-16T06:47:18.766Z,22.3039
2023-04-16T06:48:22.910Z,22.3180
2023-04-16T06:49:26.814Z,22.3340
2023-04-16T06:50:30.696Z,22.3430
2023-04-16T06:51:34.587Z,22.3484
2023-04-16T06:52:38.490Z,22.3516
2023-04-16T06:53:42.616Z,22.3514
2023-04-16T06:54:46.506Z,22.3519
2023-04-16T06:55:50.390Z,22.3492
2023-04-16T06:56:54.308Z,22.3455
2023-04-16T06:57:58.198Z,22.3423
2023-04-16T06:59:02.344Z,22.3416
2023-04-16T07:00:06.249Z,22.3391
2023-04-16T07:01:10.405Z,22.3318
2023-04-16T07:02:14.380Z,22.3374
2023-04-16T07:03:18.518Z,22.3366
2023-04-16T07:04:22.491Z,22.3328
2023-04-16T07:05:26.377Z,22.3373
2023-04-16T07:06:30.286Z,22.3426
2023-04-16T07:07:34.184Z,22.3498
2023-04-16T07:08:38.418Z,22.3493
2023-04-16T07:09:42.301Z,22.3437
2023-04-16T07:10:46.415Z,22.3418
2023-04-16T07:11:50.322Z,22.3471
2023-04-16T07:12:54.209Z,22.3547
2023-04-16T07:13:58.120Z,22.3607
2023-04-16T07:15:01.986Z,22.3572
2023-04-16T07:16:05.910Z,22.3583
2023-04-16T07:17:09.778Z,22.3611
2023-04-16T07:18:13.958Z,22.3641
2023-04-16T07:19:17.998Z,22.3653
2023-04-16T07:20:21.895Z,22.3609
2023-04-16T07:21:25.793Z,22.3590
2023-04-16T07:22:29.696Z,22.3566
2023-04-16T07:23:33.633Z,22.3600
2023-04-16T07:24:37.513Z,22.3601
2023-04-16T07:25:41.481Z,22.3640
2023-04-16T07:26:45.384Z,22.3673
2023-04-16T07:27:49.273Z,22.3660
2023-04-16T07:28:53.182Z,22.3641
2023-04-16T07:29:57.084Z,22.3679
2023-04-16T07:31:00.974Z,22.3790
2023-04-16T07:32:04.990Z,22.3875
2023-04-16T07:33:09.050Z,22.3932
2023-04-16T07:34:12.913Z,22.3904
2023-04-16T07:35:16.823Z,22.3946
2023-04-16T07:36:20.712Z,22.3950
2023-04-16T07:37:24.615Z,22.3937
2023-04-16T07:38:28.754Z,22.4010
2023-04-16T07:39:32.688Z,22.3991
2023-04-16T07:40:36.704Z,22.4014
2023-04-16T07:41:40.591Z,22.4095
2023-04-16T07:42:44.452Z,22.4125
2023-04-16T07:43:48.334Z,22.4133
2023-04-16T07:44:52.240Z,22.4145
2023-04-16T07:45:56.490Z,22.4257
2023-04-16T07:47:00.464Z,22.4345
2023-04-16T07:48:04.774Z,22.4353
2023-04-16T07:49:08.876Z,22.4270
2023-04-16T07:50:12.863Z,22.4239
2023-04-16T07:51:16.759Z,22.4241
2023-04-16T07:52:20.668Z,22.4291
2023-04-16T07:53:24.555Z,22.4318
2023-04-16T07:54:29.175Z,22.4319
2023-04-16T07:55:33.108Z,22.4285
2023-04-16T07:56:37.052Z,22.4277
2023-04-16T07:57:40.917Z,22.4236
2023-04-16T07:58:44.834Z,22.4265
2023-04-16T07:59:48.705Z,22.4299
2023-04-16T08:00:52.815Z,22.4304
2023-04-16T08:01:56.727Z,22.4312
2023-04-16T08:03:00.883Z,22.4334
2023-04-16T08:04:04.995Z,22.4376
2023-04-16T08:05:08.959Z,22.4444
2023-04-16T08:06:12.838Z,22.4523
2023-04-16T08:07:16.753Z,22.4491
2023-04-16T08:08:16.915Z,22.4477
2023-04-16T08:09:20.803Z,22.4527
2023-04-16T08:10:24.899Z,22.4561
2023-04-16T08:11:28.816Z,22.4564
2023-04-16T08:12:32.715Z,22.4609
2023-04-16T08:13:36.614Z,22.4687
2023-04-16T08:14:40.482Z,22.4672
2023-04-16T08:15:44.634Z,22.4570
2023-04-16T08:16:48.533Z,22.4585
2023-04-16T08:17:52.756Z,22.4649
2023-04-16T08:18:56.609Z,22.4677
2023-04-16T08:20:00.506Z,22.4720
2023-04-16T08:21:04.392Z,22.4784
2023-04-16T08:22:08.316Z,22.4829
2023-04-16T08:23:12.195Z,22.4791
2023-04-16T08:24:16.127Z,22.4759
2023-04-16T08:25:20.000Z,22.4765
2023-04-16T08:26:24.002Z,22.4851
2023-04-16T08:27:27.901Z,22.4911
2023-04-16T08:28:32.024Z,22.4871
2023-04-16T08:29:35.935Z,22.4868
2023-04-16T08:30:39.841Z,22.4895
2023-04-16T08:31:43.775Z,22.4904
2023-04-16T08:32:50.045Z,22.4940
2023-04-16T08:33:48.852Z,22.5008
2023-04-16T08:34:52.753Z,22.5090
2023-04-16T08:35:56.991Z,22.5152
2023-04-16T08:37:00.994Z,22.5214
2023-04-16T08:38:04.912Z,22.5209
2023-04-16T08:39:08.913Z,22.5122
2023-04-16T08:40:13.083Z,22.5061
2023-04-16T08:41:17.218Z,22.5101
2023-04-16T08:42:21.131Z,22.5069
2023-04-16T08:43:25.013Z,22.5173
2023-04-16T08:44:28.939Z,22.5292
2023-04-16T08:45:33.118Z,22.5327
2023-04-16T08:46:37.024Z,22.5289
2023-04-16T08:47:40.911Z,22.5327
2023-04-16T08:48:44.787Z,22.5327
2023-04-16T08:49:48.721Z,22.5340
2023-04-16T08:50:52.580Z,22.5319
2023-04-16T08:51:54.080Z,22.5389
2023-04-16T08:52:58.213Z,22.5525
2023-04-16T08:54:02.310Z,22.5595
2023-04-16T08:55:06.221Z,22.5585
2023-04-16T08:56:10.104Z,22.5576
2023-04-16T08:57:13.987Z,22.5545
2023-04-16T08:58:18.202Z,22.5481
2023-04-16T08:59:22.089Z,22.5495
2023-04-16T09:00:26.218Z,22.5520
2023-04-16T09:01:30.145Z,22.5567
2023-04-16T09:02:34.134Z,22.5525
2023-04-16T09:03:38.345Z,22.5561
2023-04-16T09:04:42.383Z,22.5686
2023-04-16T09:05:46.280Z,22.5686
2023-04-16T09:06:50.163Z,22.5609
2023-04-16T09:07:54.059Z,22.5580
2023-04-16T09:08:57.953Z,22.5618
2023-04-16T09:10:01.914Z,22.5622
2023-04-16T09:11:05.814Z,22.5654
2023-04-16T09:12:09.700Z,22.5635
2023-04-16T09:13:13.596Z,22.5636
2023-04-16T09:14:17.482Z,22.5667
2023-04-16T09:15:21.598Z,22.5725
2023-04-16T09:16:25.534Z,22.5732
2023-04-16T09:17:29.497Z,22.5714
2023-04-16T09:18:33.372Z,22.5738
2023-04-16T09:19:37.270Z,22.5790
2023-04-16T09:20:41.320Z,22.5782
2023-04-16T09:21:45.207Z,22.5784
2023-04-16T09:22:49.104Z,22.5751
2023-04-16T09:23:52.984Z,22.5728
2023-04-16T09:24:56.885Z,22.5760
2023-04-16T09:26:00.962Z,22.5772
2023-04-16T09:27:04.862Z,22.5787
2023-04-16T09:28:09.016Z,22.5828
2023-04-16T09:29:12.887Z,22.5918
2023-04-16T09:30:16.793Z,22.5943
2023-04-16T09:31:21.013Z,22.5944
2023-04-16T09:32:24.911Z,22.5945
2023-04-16T09:33:28.808Z,22.5923
2023-04-16T09:34:32.703Z,22.5938
2023-04-16T09:35:36.849Z,22.5939
2023-04-16T09:36:40.737Z,22.5996
2023-04-16T09:37:44.875Z,22.6103
2023-04-16T09:38:48.751Z,22.6131
2023-04-16T09:39:52.655Z,22.6095
2023-04-16T09:40:56.723Z,22.6087
2023-04-16T09:42:00.613Z,22.6095
2023-04-16T09:43:05.018Z,22.6119
2023-04-16T09:44:08.918Z,22.6148
2023-04-16T09:45:12.791Z,22.6193
2023-04-16T09:46:16.704Z,22.6218
2023-04-16T09:47:20.598Z,22.6255
2023-04-16T09:48:24.476Z,22.6282
2023-04-16T09:49:28.407Z,22.6277
2023-04-16T09:50:32.315Z,22.6329
2023-04-16T09:51:36.220Z,22.6350
2023-04-16T09:52:40.341Z,22.6375
2023-04-16T09:53:44.220Z,22.6354
2023-04-16T09:54:48.116Z,22.6423
2023-04-16T09:55:52.248Z,22.6389
2023-04-16T09:56:56.161Z,22.6334
2023-04-16T09:58:00.084Z,22.6292
2023-04-16T09:59:04.006Z,22.6254
2023-04-16T10:00:07.926Z,22.6300
2023-04-16T10:01:12.006Z,22.6324
2023-04-16T10:02:16.560Z,22.6337
2023-04-16T10:03:20.657Z,22.6357
2023-04-16T10:04:24.572Z,22.6323
2023-04-16T10:05:28.525Z,22.6412
2023-04-16T10:06:32.407Z,22.6440
2023-04-16T10:07:36.528Z,22.6416
2023-04-16T10:08:40.408Z,22.6454
2023-04-16T10:09:44.272Z,22.6429
2023-04-16T10:10:48.153Z,22.6476
2023-04-16T10:11:52.051Z,22.6546
2023-04-16T10:12:56.188Z,22.6545
2023-04-16T10:14:00.172Z,22.6536
2023-04-16T10:15:04.311Z,22.6488
2023-04-16T10:16:08.201Z,22.6487
2023-04-16T10:17:12.117Z,22.6584
2023-04-16T10:18:16.008Z,22.6620
2023-04-16T10:19:19.929Z,22.6592
2023-04-16T10:20:23.823Z,22.6570
2023-04-16T10:21:27.740Z,22.6593
2023-04-16T10:22:31.614Z,22.6589
2023-04-16T10:23:35.508Z,22.6592
2023-04-16T10:24:39.417Z,22.6643
2023-04-16T10:25:43.545Z,22.6761
2023-04-16T10:26:47.428Z,22.6802
2023-04-16T10:27:51.560Z,22.6821
2023-04-16T10:28:55.456Z,22.6811
2023-04-16T10:29:59.342Z,22.6831
2023-04-16T10:31:03.281Z,22.6863
2023-04-16T10:32:07.159Z,22.6861
2023-04-16T10:33:11.093Z,22.6859
2023-04-16T10:34:14.964Z,22.6875
2023-04-16T10:35:18.870Z,22.6968
2023-04-16T10:36:22.779Z,22.7115
2023-04-16T10:37:26.976Z,22.7122
2023-04-16T10:38:30.880Z,22.7134
2023-04-16T10:39:34.805Z,22.7195
2023-04-16T10:40:38.725Z,22.7267
2023-04-16T10:41:42.628Z,22.7418
2023-04-16T10:42:46.535Z,22.7408
2023-04-16T10:43:50.450Z,22.7392
2023-04-16T10:44:54.342Z,22.7418
2023-04-16T10:45:58.482Z,22.7429
2023-04-16T10:47:02.418Z,22.7493
2023-04-16T10:48:06.350Z,22.7613
2023-04-16T10:49:10.319Z,22.7652
2023-04-16T10:50:14.545Z,22.7708
2023-04-16T10:51:18.466Z,22.7719
2023-04-16T10:52:22.393Z,22.7720
2023-04-16T10:53:26.269Z,22.7699
2023-04-16T10:54:30.143Z,22.7813
2023-04-16T10:55:34.025Z,22.7951
2023-04-16T10:56:37.908Z,22.7993
2023-04-16T10:57:41.787Z,22.8037
2023-04-16T10:58:45.673Z,22.7985
2023-04-16T10:59:49.902Z,22.7926
2023-04-16T11:00:53.810Z,22.7948
2023-04-16T11:01:57.798Z,22.8026
2023-04-16T11:03:01.768Z,22.8073
2023-04-16T11:04:05.793Z,22.8088
2023-04-16T11:05:09.755Z,22.8100
2023-04-16T11:06:13.676Z,22.8098
2023-04-16T11:07:17.568Z,22.8129
2023-04-16T11:08:21.440Z,22.8181
2023-04-16T11:09:25.347Z,22.8211
2023-04-16T11:10:29.459Z,22.8185
2023-04-16T11:11:33.375Z,22.8093
2023-04-16T11:12:37.399Z,22.8110
2023-04-16T11:13:43.133Z,22.8181
2023-04-16T11:14:42.124Z,22.8237
2023-04-16T11:15:46.274Z,22.8295
2023-04-16T11:16:50.159Z,22.8276
2023-04-16T11:17:54.152Z,22.8315
2023-04-16T11:18:58.027Z,22.8342
2023-04-16T11:20:02.136Z,22.8343
2023-04-16T11:21:06.042Z,22.8341
2023-04-16T11:22:09.960Z,22.8338
2023-04-16T11:23:10.310Z,22.8374
2023-04-16T11:24:14.254Z,22.8398
2023-04-16T11:25:18.135Z,22.8460
2023-04-16T11:26:22.016Z,22.8494
2023-04-16T11:27:25.915Z,22.8505
2023-04-16T11:28:29.801Z,22.8505
2023-04-16T11:29:33.689Z,22.8489
2023-04-16T11:30:37.584Z,22.8471
2023-04-16T11:31:41.495Z,22.8478
2023-04-16T11:32:45.419Z,22.8447
2023-04-16T11:33:49.276Z,22.8401
2023-04-16T11:34:53.387Z,22.8397
2023-04-16T11:35:57.279Z,22.8386
2023-04-16T11:37:01.169Z,22.8400
2023-04-16T11:38:05.317Z,22.8452
2023-04-16T11:39:09.323Z,22.8449
2023-04-16T11:40:13.624Z,22.8417
2023-04-16T11:41:17.480Z,22.8455
2023-04-16T11:42:21.613Z,22.8428
2023-04-16T11:43:25.504Z,22.8445
2023-04-16T11:44:29.386Z,22.8458
2023-04-16T11:45:33.282Z,22.8556
2023-04-16T11:46:37.196Z,22.8601
2023-04-16T11:47:41.123Z,22.8578
2023-04-16T11:48:45.045Z,22.8617
2023-04-16T11:49:48.953Z,22.8586
2023-04-16T11:50:52.826Z,22.8538
2023-04-16T11:51:56.742Z,22.8530
2023-04-16T11:53:00.829Z,22.8504
2023-04-16T11:54:04.733Z,22.8476
2023-04-16T11:55:08.845Z,22.8519
2023-04-16T11:56:12.743Z,22.8472
2023-04-16T11:57:16.652Z,22.8500
2023-04-16T11:58:20.541Z,22.8563
2023-04-16T11:59:21.384Z,22.8564
2023-04-16T12:00:25.270Z,22.8565
2023-04-16T12:01:29.178Z,22.8574
2023-04-16T12:02:33.148Z,22.8551
2023-04-16T12:03:37.339Z,22.8540
2023-04-16T12:04:41.485Z,22.8599
2023-04-16T12:05:45.387Z,22.8618
2023-04-16T12:06:49.293Z,22.8577
2023-04-16T12:07:53.478Z,22.8528
2023-04-16T12:08:57.366Z,22.8564
2023-04-16T12:10:01.276Z,22.8612
2023-04-16T12:11:05.174Z,22.8637
2023-04-16T12:12:09.319Z,22.8741
2023-04-16T12:13:13.218Z,22.8833
2023-04-16T12:14:17.121Z,22.8849
2023-04-16T12:15:21.249Z,22.8804
2023-04-16T12:16:25.157Z,22.8829
2023-04-16T12:17:29.084Z,22.8883
2023-04-16T12:18:32.935Z,22.8930
2023-04-16T12:19:36.842Z,22.9005
2023-04-16T12:20:40.723Z,22.9080
2023-04-16T12:21:44.604Z,22.9136
2023-04-16T12:22:48.751Z,22.9161
2023-04-16T12:23:52.627Z,22.9171
2023-04-16T12:24:56.757Z,22.9120
2023-04-16T12:26:00.646Z,22.9066
2023-04-16T12:27:04.552Z,22.9079
2023-04-16T12:28:08.421Z,22.9179
2023-04-16T12:29:12.313Z,22.9207
2023-04-16T12:30:16.432Z,22.9174
2023-04-16T12:31:20.420Z,22.9159
2023-04-16T12:32:24.349Z,22.9127
2023-04-16T12:33:28.298Z,22.9151
2023-04-16T12:34:46.765Z,22.9178
2023-04-16T12:35:36.929Z,22.9237
2023-04-16T12:36:40.827Z,22.9236
2023-04-16T12:37:44.956Z,22.9311
2023-04-16T12:38:48.862Z,22.9384
2023-04-16T12:39:53.001Z,22.9451
2023-04-16T12:40:57.332Z,22.9518
2023-04-16T12:42:01.334Z,22.9422
2023-04-16T12:43:05.518Z,22.9478
2023-04-16T12:44:09.392Z,22.9555
2023-04-16T12:45:13.278Z,22.9629
2023-04-16T12:46:17.208Z,22.9664
2023-04-16T12:47:21.108Z,22.9736
2023-04-16T12:48:24.964Z,22.9670
2023-04-16T12:49:28.861Z,22.9643
2023-04-16T12:50:32.751Z,22.9617
2023-04-16T12:51:36.646Z,22.9725
2023-04-16T12:52:40.537Z,22.9769